createdAt,value
2022-10-30T00:01:41.086Z,13.50
2022-10-30T00:04:07.760Z,13.40
2022-10-30T00:06:34.325Z,13.50
2022-10-30T00:09:01.051Z,13.40
2022-10-30T00:11:29.292Z,13.50
2022-10-30T00:13:55.831Z,13.50
2022-10-30T00:16:22.377Z,13.40
2022-10-30T00:18:48.879Z,13.40
2022-10-30T00:21:15.743Z,13.40
2022-10-30T00:23:46.384Z,13.40
2022-10-30T00:26:15.197Z,13.40
2022-10-30T00:28:43.934Z,13.40
2022-10-30T00:31:10.495Z,13.40
2022-10-30T00:33:39.208Z,13.40
2022-10-30T00:36:05.932Z,13.30
2022-10-30T00:38:32.473Z,13.40
2022-10-30T00:40:59.054Z,13.40
2022-10-30T00:43:28.551Z,13.30
2022-10-30T00:45:57.718Z,13.30
2022-10-30T00:48:28.180Z,13.30
2022-10-30T00:50:55.547Z,13.30
2022-10-30T00:53:22.274Z,13.30
2022-10-30T00:55:53.500Z,13.30
2022-10-30T00:58:22.146Z,13.20
2022-10-30T01:00:50.685Z,13.20
2022-10-30T01:03:20.893Z,13.20
2022-10-30T01:05:48.852Z,13.20
2022-10-30T01:08:17.659Z,13.20
2022-10-30T01:10:46.668Z,13.10
2022-10-30T01:13:13.301Z,13.20
2022-10-30T01:15:53.236Z,13.20
2022-10-30T01:18:25.665Z,13.10
2022-10-30T01:21:03.829Z,13.10
2022-10-30T01:23:37.397Z,13.10
2022-10-30T01:26:19.186Z,13.00
2022-10-30T01:28:45.688Z,13.00
2022-10-30T01:31:32.523Z,13.00
2022-10-30T01:34:04.984Z,13.00
2022-10-30T01:36:31.519Z,13.00
2022-10-30T01:39:07.006Z,12.90
2022-10-30T01:41:33.537Z,12.90
2022-10-30T01:44:05.128Z,13.00
2022-10-30T01:46:31.625Z,12.90
2022-10-30T01:49:06.826Z,12.90
2022-10-30T01:51:43.357Z,12.90
2022-10-30T01:54:13.159Z,12.90
2022-10-30T01:56:54.934Z,12.90
2022-10-30T01:59:26.112Z,12.90
2022-10-30T02:01:52.863Z,12.90
2022-10-30T02:04:21.967Z,12.90
2022-10-30T02:06:51.391Z,12.90
2022-10-30T02:09:17.943Z,12.80
2022-10-30T02:11:45.974Z,12.80
2022-10-30T02:14:15.211Z,12.80
2022-10-30T02:16:44.633Z,12.80
2022-10-30T02:19:11.242Z,12.80
2022-10-30T02:21:37.755Z,12.80
2022-10-30T02:24:04.457Z,12.80
2022-10-30T02:26:30.991Z,12.70
2022-10-30T02:28:57.516Z,12.70
2022-10-30T02:31:24.075Z,12.70
2022-10-30T02:33:52.736Z,12.70
2022-10-30T02:36:21.636Z,12.70
2022-10-30T02:38:48.276Z,12.70
2022-10-30T02:41:17.170Z,12.70
2022-10-30T02:43:43.696Z,12.70
2022-10-30T02:46:10.201Z,12.60
2022-10-30T02:48:36.876Z,12.60
2022-10-30T02:51:05.770Z,12.70
2022-10-30T02:53:33.383Z,12.60
2022-10-30T02:56:05.981Z,12.60
2022-10-30T02:58:32.566Z,12.60
2022-10-30T03:01:04.807Z,12.60
2022-10-30T03:03:31.369Z,12.60
2022-10-30T03:05:59.964Z,12.60
2022-10-30T03:08:26.491Z,12.60
2022-10-30T03:10:58.481Z,12.50
2022-10-30T03:13:24.985Z,12.50
2022-10-30T03:15:51.547Z,12.50
2022-10-30T03:18:18.064Z,12.50
2022-10-30T03:20:44.575Z,12.50
2022-10-30T03:23:11.080Z,12.50
2022-10-30T03:25:37.582Z,12.60
2022-10-30T03:28:04.218Z,12.60
2022-10-30T03:30:30.744Z,12.60
2022-10-30T03:33:00.075Z,12.60
2022-10-30T03:35:26.848Z,12.60
2022-10-30T03:37:53.406Z,12.60
2022-10-30T03:40:20.280Z,12.50
2022-10-30T03:42:51.481Z,12.40
2022-10-30T03:45:20.487Z,12.30
2022-10-30T03:47:47.010Z,12.30
2022-10-30T03:50:13.605Z,12.20
2022-10-30T03:52:40.100Z,12.20
2022-10-30T03:55:06.867Z,12.10
2022-10-30T03:57:38.766Z,12.10
2022-10-30T04:00:06.226Z,12.20
2022-10-30T04:02:32.795Z,12.20
2022-10-30T04:05:01.442Z,12.20
2022-10-30T04:07:30.220Z,12.20
2022-10-30T04:09:59.230Z,12.20
2022-10-30T04:12:25.741Z,12.20
2022-10-30T04:14:53.680Z,12.10
2022-10-30T04:17:20.297Z,12.10
2022-10-30T04:19:49.232Z,12.10
2022-10-30T04:22:15.778Z,12.10
2022-10-30T04:24:42.303Z,12.10
2022-10-30T04:27:08.800Z,12.20
2022-10-30T04:29:37.461Z,12.20
2022-10-30T04:34:35.964Z,12.20
2022-10-30T04:37:02.490Z,12.20
2022-10-30T04:39:28.979Z,12.20
2022-10-30T04:41:55.478Z,12.20
2022-10-30T04:44:22.054Z,12.10
2022-10-30T04:46:48.631Z,12.00
2022-10-30T04:49:17.326Z,11.90
2022-10-30T04:51:43.872Z,11.90
2022-10-30T04:54:12.645Z,11.90
2022-10-30T04:56:39.243Z,12.00
2022-10-30T04:59:05.824Z,12.00
2022-10-30T05:01:32.533Z,12.00
2022-10-30T05:03:59.326Z,12.00
2022-10-30T05:06:27.045Z,12.10
2022-10-30T05:08:54.772Z,12.10
2022-10-30T05:11:21.383Z,12.10
2022-10-30T05:13:48.086Z,12.10
2022-10-30T05:16:14.674Z,12.10
2022-10-30T05:18:43.466Z,12.10
2022-10-30T05:21:10.045Z,12.10
2022-10-30T05:23:36.618Z,12.10
2022-10-30T05:26:03.203Z,12.10
2022-10-30T05:28:29.748Z,12.10
2022-10-30T05:30:56.289Z,12.10
2022-10-30T05:33:25.252Z,12.10
2022-10-30T05:35:51.955Z,12.10
2022-10-30T05:38:20.940Z,12.10
2022-10-30T05:40:47.468Z,12.20
2022-10-30T05:43:16.318Z,12.20
2022-10-30T05:45:42.887Z,12.20
2022-10-30T05:48:09.427Z,12.20
2022-10-30T05:50:35.992Z,12.20
2022-10-30T05:53:03.966Z,12.20
2022-10-30T05:55:33.133Z,12.20
2022-10-30T05:58:01.084Z,12.20
2022-10-30T06:00:29.097Z,12.20
2022-10-30T06:03:00.229Z,12.20
2022-10-30T06:05:27.425Z,12.20
2022-10-30T06:07:56.783Z,12.20
2022-10-30T06:10:26.349Z,12.20
2022-10-30T06:12:53.910Z,12.20
2022-10-30T06:15:20.568Z,12.20
2022-10-30T06:17:49.247Z,12.20
2022-10-30T06:20:16.499Z,12.10
2022-10-30T06:22:52.775Z,12.10
2022-10-30T06:25:19.293Z,12.00
2022-10-30T06:27:48.066Z,12.00
2022-10-30T06:30:17.137Z,12.10
2022-10-30T06:32:43.708Z,12.10
2022-10-30T06:35:12.584Z,12.00
2022-10-30T06:37:46.813Z,12.10
2022-10-30T06:40:13.466Z,12.10
2022-10-30T06:42:47.084Z,12.10
2022-10-30T06:45:14.879Z,12.10
2022-10-30T06:47:42.141Z,12.10
2022-10-30T06:50:10.028Z,12.10
2022-10-30T06:52:36.939Z,12.20
2022-10-30T06:55:05.068Z,12.20
2022-10-30T06:57:31.737Z,12.20
2022-10-30T06:59:58.338Z,12.20
2022-10-30T07:02:27.246Z,12.20
2022-10-30T07:04:53.885Z,12.30
2022-10-30T07:07:20.482Z,12.30
2022-10-30T07:09:47.073Z,12.30
2022-10-30T07:12:15.853Z,12.30
2022-10-30T07:14:42.409Z,12.20
2022-10-30T07:17:11.309Z,12.20
2022-10-30T07:19:40.232Z,12.20
2022-10-30T07:22:06.758Z,12.30
2022-10-30T07:24:35.843Z,12.30
2022-10-30T07:27:02.357Z,12.20
2022-10-30T07:29:28.880Z,12.20
2022-10-30T07:32:03.012Z,12.30
2022-10-30T07:34:30.329Z,12.30
2022-10-30T07:36:56.851Z,12.30
2022-10-30T07:39:23.406Z,12.40
2022-10-30T07:41:50.722Z,12.40
2022-10-30T07:44:17.694Z,12.40
2022-10-30T07:46:44.250Z,12.40
2022-10-30T07:49:10.802Z,12.40
2022-10-30T07:51:39.879Z,12.40
2022-10-30T07:54:06.412Z,12.40
2022-10-30T07:56:33.017Z,12.40
2022-10-30T07:58:59.556Z,12.40
2022-10-30T08:01:26.321Z,12.40
2022-10-30T08:03:52.974Z,12.40
2022-10-30T08:06:24.676Z,12.40
2022-10-30T08:08:53.588Z,12.40
2022-10-30T08:11:20.121Z,12.40
2022-10-30T08:13:51.606Z,12.40
2022-10-30T08:16:18.443Z,12.40
2022-10-30T08:18:47.506Z,12.40
2022-10-30T08:21:14.047Z,12.40
2022-10-30T08:23:40.648Z,12.40
2022-10-30T08:26:07.487Z,12.30
2022-10-30T08:28:34.350Z,12.30
2022-10-30T08:31:05.813Z,12.30
2022-10-30T08:33:32.335Z,12.30
2022-10-30T08:35:59.464Z,12.30
2022-10-30T08:38:26.892Z,12.40
2022-10-30T08:40:55.890Z,12.50
2022-10-30T08:43:26.524Z,12.50
2022-10-30T08:45:55.461Z,12.60
2022-10-30T08:48:21.979Z,12.60
2022-10-30T08:50:50.755Z,12.60
2022-10-30T08:53:17.339Z,12.70
2022-10-30T08:55:43.872Z,12.50
2022-10-30T08:58:10.441Z,12.50
2022-10-30T09:00:37.028Z,12.50
2022-10-30T09:03:03.977Z,12.50
2022-10-30T09:05:30.926Z,12.60
2022-10-30T09:07:58.990Z,12.70
2022-10-30T09:10:28.552Z,12.60
2022-10-30T09:12:58.046Z,12.70
2022-10-30T09:15:25.257Z,12.80
2022-10-30T09:17:56.473Z,12.80
2022-10-30T09:20:23.955Z,12.80
2022-10-30T09:22:53.742Z,12.70
2022-10-30T09:25:20.501Z,12.80
2022-10-30T09:27:47.090Z,12.80
2022-10-30T09:30:16.108Z,12.80
2022-10-30T09:32:42.638Z,12.90
2022-10-30T09:35:09.269Z,12.90
2022-10-30T09:37:36.688Z,13.00
2022-10-30T09:40:06.108Z,13.10
2022-10-30T09:42:36.417Z,13.00
2022-10-30T09:45:27.443Z,13.10
2022-10-30T09:47:49.436Z,13.10
2022-10-30T09:50:18.427Z,13.20
2022-10-30T09:52:44.942Z,13.40
2022-10-30T09:55:29.602Z,13.40
2022-10-30T09:57:58.874Z,13.50
2022-10-30T10:00:33.141Z,13.50
2022-10-30T10:03:05.729Z,13.50
2022-10-30T10:05:44.502Z,13.60
2022-10-30T10:08:23.609Z,13.60
2022-10-30T10:10:54.186Z,13.60
2022-10-30T10:13:40.967Z,13.70
2022-10-30T10:16:28.649Z,13.70
2022-10-30T10:19:07.706Z,13.70
2022-10-30T10:21:36.601Z,13.80
2022-10-30T10:24:16.776Z,13.80
2022-10-30T10:26:44.783Z,13.80
2022-10-30T10:29:28.811Z,13.80
2022-10-30T10:32:08.169Z,13.90
2022-10-30T10:34:34.726Z,14.00
2022-10-30T10:37:16.712Z,13.90
2022-10-30T10:39:43.304Z,13.90
2022-10-30T10:42:32.887Z,13.90
2022-10-30T10:45:13.887Z,13.90
2022-10-30T10:47:53.683Z,14.00
2022-10-30T10:50:31.013Z,14.00
2022-10-30T10:53:07.044Z,14.10
2022-10-30T10:55:36.242Z,14.10
2022-10-30T10:58:07.180Z,14.20
2022-10-30T11:00:34.286Z,14.20
2022-10-30T11:03:06.900Z,14.20
2022-10-30T11:05:43.877Z,14.20
2022-10-30T11:08:15.333Z,14.20
2022-10-30T11:10:56.106Z,14.20
2022-10-30T11:13:23.808Z,14.30
2022-10-30T11:15:59.755Z,14.40
2022-10-30T11:18:26.325Z,14.40
2022-10-30T11:21:08.093Z,14.50
2022-10-30T11:23:40.675Z,14.50
2022-10-30T11:26:18.043Z,14.50
2022-10-30T11:28:44.599Z,14.50
2022-10-30T11:31:18.188Z,14.60
2022-10-30T11:33:46.216Z,14.80
2022-10-30T11:36:15.784Z,14.90
2022-10-30T11:38:42.904Z,15.00
2022-10-30T11:41:10.480Z,15.20
2022-10-30T11:43:37.867Z,15.20
2022-10-30T11:46:09.177Z,15.30
2022-10-30T11:48:37.562Z,15.40
2022-10-30T11:51:08.850Z,15.50
2022-10-30T11:53:39.191Z,15.60
2022-10-30T11:56:24.001Z,15.70
2022-10-30T11:58:52.310Z,15.80
2022-10-30T12:01:31.311Z,15.90
2022-10-30T12:04:15.949Z,16.00
2022-10-30T12:06:42.538Z,16.10
2022-10-30T12:09:11.655Z,16.10
2022-10-30T12:11:39.299Z,16.30
2022-10-30T12:14:08.310Z,16.30
2022-10-30T12:16:34.918Z,16.40
2022-10-30T12:19:09.160Z,16.50
2022-10-30T12:21:38.015Z,16.60
2022-10-30T12:24:07.269Z,16.60
2022-10-30T12:26:34.748Z,16.60
2022-10-30T12:29:03.117Z,16.70
2022-10-30T12:31:35.025Z,16.70
2022-10-30T12:34:06.467Z,16.80
2022-10-30T12:36:37.100Z,16.90
2022-10-30T12:39:06.036Z,16.90
2022-10-30T12:41:36.024Z,17.00
2022-10-30T12:44:02.524Z,17.10
2022-10-30T12:46:31.253Z,17.20
2022-10-30T12:49:19.905Z,17.20
2022-10-30T12:51:55.560Z,17.30
2022-10-30T12:54:37.425Z,17.40
2022-10-30T12:57:07.278Z,17.50
2022-10-30T12:59:42.530Z,17.60
2022-10-30T13:02:26.096Z,17.60
2022-10-30T13:04:55.481Z,17.70
2022-10-30T13:07:28.048Z,17.70
2022-10-30T13:10:20.746Z,17.80
2022-10-30T13:12:52.313Z,18.00
2022-10-30T13:15:21.711Z,18.10
2022-10-30T13:17:49.133Z,18.10
2022-10-30T13:20:17.014Z,18.20
2022-10-30T13:22:48.720Z,18.30
2022-10-30T13:25:18.081Z,18.30
2022-10-30T13:27:47.067Z,18.30
2022-10-30T13:30:20.735Z,18.40
2022-10-30T13:32:47.293Z,18.40
2022-10-30T13:35:20.453Z,18.50
2022-10-30T13:37:56.544Z,18.60
2022-10-30T13:40:46.328Z,18.70
2022-10-30T13:43:27.271Z,18.70
2022-10-30T13:45:55.920Z,18.80
2022-10-30T13:48:22.440Z,18.80
2022-10-30T13:51:07.844Z,18.80
2022-10-30T13:53:36.483Z,18.80
2022-10-30T13:56:04.232Z,18.90
2022-10-30T13:58:36.789Z,18.90
2022-10-30T14:01:05.549Z,18.90
2022-10-30T14:03:53.469Z,18.90
2022-10-30T14:06:38.754Z,18.80
2022-10-30T14:09:17.222Z,18.80
2022-10-30T14:11:48.738Z,18.80
2022-10-30T14:14:24.186Z,18.80
2022-10-30T14:17:22.969Z,18.80
2022-10-30T14:20:10.135Z,18.80
2022-10-30T14:22:40.088Z,19.00
2022-10-30T14:25:16.075Z,19.00
2022-10-30T14:27:54.398Z,19.00
2022-10-30T14:30:23.371Z,19.00
2022-10-30T14:32:51.542Z,18.90
2022-10-30T14:35:27.996Z,18.80
2022-10-30T14:37:55.486Z,18.80
2022-10-30T14:40:41.741Z,18.80
2022-10-30T14:43:34.617Z,18.80
2022-10-30T14:46:01.987Z,18.80
2022-10-30T14:48:33.111Z,18.80
2022-10-30T14:51:12.997Z,18.70
2022-10-30T14:53:51.996Z,18.80
2022-10-30T14:56:18.526Z,18.70
2022-10-30T14:59:04.986Z,18.70
2022-10-30T15:01:35.171Z,18.70
2022-10-30T15:04:04.501Z,18.60
2022-10-30T15:06:40.259Z,18.60
2022-10-30T15:09:18.277Z,18.60
2022-10-30T15:12:03.791Z,18.60
2022-10-30T15:14:48.529Z,18.60
2022-10-30T15:17:24.351Z,18.50
2022-10-30T15:19:50.913Z,18.50
2022-10-30T15:22:19.925Z,18.40
2022-10-30T15:24:49.350Z,18.40
2022-10-30T15:27:19.470Z,18.40
2022-10-30T15:29:50.634Z,18.30
2022-10-30T15:32:17.165Z,18.30
2022-10-30T15:34:54.398Z,18.30
2022-10-30T15:37:21.317Z,18.20
2022-10-30T15:39:47.874Z,18.20
2022-10-30T15:42:14.777Z,18.10
2022-10-30T15:44:45.209Z,18.10
2022-10-30T15:47:16.429Z,18.10
2022-10-30T15:49:54.239Z,18.00
2022-10-30T15:52:24.181Z,18.00
2022-10-30T15:55:00.020Z,18.00
2022-10-30T15:58:00.927Z,17.90
2022-10-30T16:00:25.069Z,17.90
2022-10-30T16:03:26.338Z,17.80
2022-10-30T16:06:05.820Z,17.80
2022-10-30T16:08:42.113Z,17.70
2022-10-30T16:11:08.638Z,17.70
2022-10-30T16:13:37.549Z,17.70
2022-10-30T16:16:04.312Z,17.70
2022-10-30T16:18:31.886Z,17.60
2022-10-30T16:21:02.864Z,17.60
2022-10-30T16:23:30.140Z,17.60
2022-10-30T16:25:57.911Z,17.50
2022-10-30T16:28:31.307Z,17.50
2022-10-30T16:31:01.306Z,17.40
2022-10-30T16:33:29.425Z,17.30
2022-10-30T16:35:56.313Z,17.30
2022-10-30T16:38:23.699Z,17.30
2022-10-30T16:40:52.852Z,17.30
2022-10-30T16:43:27.802Z,17.20
2022-10-30T16:45:55.272Z,17.10
2022-10-30T16:48:27.859Z,17.10
2022-10-30T16:51:01.588Z,17.10
2022-10-30T16:53:28.713Z,17.00
2022-10-30T16:55:56.357Z,17.00
2022-10-30T16:58:24.728Z,16.90
2022-10-30T17:00:52.380Z,16.90
2022-10-30T17:03:22.928Z,16.90
2022-10-30T17:05:58.601Z,16.80
2022-10-30T17:08:28.677Z,16.70
2022-10-30T17:11:01.468Z,16.70
2022-10-30T17:13:35.684Z,16.70
2022-10-30T17:16:24.820Z,16.60
2022-10-30T17:18:51.896Z,16.60
2022-10-30T17:21:22.839Z,16.60
2022-10-30T17:23:53.279Z,16.50
2022-10-30T17:26:19.808Z,16.50
2022-10-30T17:28:46.876Z,16.40
2022-10-30T17:31:22.755Z,16.40
2022-10-30T17:34:07.843Z,16.40
2022-10-30T17:36:34.358Z,16.30
2022-10-30T17:39:00.871Z,16.20
2022-10-30T17:41:28.145Z,16.20
2022-10-30T17:43:55.575Z,16.20
2022-10-30T17:46:22.796Z,16.10
2022-10-30T17:48:49.395Z,16.10
2022-10-30T17:51:16.699Z,16.00
2022-10-30T17:53:43.541Z,16.00
2022-10-30T17:56:30.312Z,15.90
2022-10-30T17:58:56.868Z,15.90
2022-10-30T18:01:24.563Z,15.90
2022-10-30T18:03:54.859Z,15.80
2022-10-30T18:06:25.688Z,15.80
2022-10-30T18:08:53.427Z,15.80
2022-10-30T18:11:21.131Z,15.70
2022-10-30T18:13:51.054Z,15.70
2022-10-30T18:16:20.811Z,15.70
2022-10-30T18:18:47.726Z,15.60
2022-10-30T18:21:15.512Z,15.60
2022-10-30T18:23:53.127Z,15.60
2022-10-30T18:26:24.378Z,15.60
2022-10-30T18:28:50.990Z,15.50
2022-10-30T18:31:19.506Z,15.50
2022-10-30T18:33:46.521Z,15.40
2022-10-30T18:36:14.353Z,15.40
2022-10-30T18:38:43.306Z,15.40
2022-10-30T18:41:14.537Z,15.30
2022-10-30T18:43:45.594Z,15.30
2022-10-30T18:46:13.808Z,15.30
2022-10-30T18:48:40.361Z,15.30
2022-10-30T18:51:10.619Z,15.20
2022-10-30T18:53:37.161Z,15.20
2022-10-30T18:56:03.739Z,15.20
2022-10-30T18:58:30.319Z,15.10
2022-10-30T19:01:17.454Z,15.10
2022-10-30T19:03:44.556Z,15.00
2022-10-30T19:06:15.294Z,15.00
2022-10-30T19:08:41.826Z,15.00
2022-10-30T19:11:12.538Z,14.90
2022-10-30T19:13:40.599Z,14.80
2022-10-30T19:16:10.163Z,14.80
2022-10-30T19:18:39.206Z,14.80
2022-10-30T19:21:08.128Z,14.70
2022-10-30T19:23:40.570Z,14.70
2022-10-30T19:26:07.146Z,14.70
2022-10-30T19:28:33.730Z,14.70
2022-10-30T19:31:00.270Z,14.60
2022-10-30T19:33:26.829Z,14.60
2022-10-30T19:35:54.832Z,14.50
2022-10-30T19:38:21.580Z,14.50
2022-10-30T19:40:50.768Z,14.50
2022-10-30T19:43:17.311Z,14.50
2022-10-30T19:45:43.860Z,14.60
2022-10-30T19:48:17.737Z,14.50
2022-10-30T19:50:47.772Z,14.50
2022-10-30T19:53:14.574Z,14.50
2022-10-30T19:55:42.369Z,14.40
2022-10-30T19:58:13.073Z,14.40
2022-10-30T20:00:40.476Z,14.30
2022-10-30T20:03:10.489Z,14.30
2022-10-30T20:05:42.828Z,14.30
2022-10-30T20:08:14.589Z,14.20
2022-10-30T20:10:42.480Z,14.20
2022-10-30T20:13:10.075Z,14.10
2022-10-30T20:15:37.040Z,14.10
2022-10-30T20:18:11.680Z,14.10
2022-10-30T20:20:38.615Z,14.00
2022-10-30T20:23:07.641Z,14.00
2022-10-30T20:25:36.333Z,14.00
2022-10-30T20:28:06.872Z,14.00
2022-10-30T20:30:36.209Z,14.00
2022-10-30T20:33:03.168Z,13.90
2022-10-30T20:35:32.055Z,13.90
2022-10-30T20:38:02.473Z,13.80
2022-10-30T20:40:30.167Z,13.80
2022-10-30T20:42:59.982Z,13.70
2022-10-30T20:45:29.856Z,13.70
2022-10-30T20:47:56.648Z,13.70
2022-10-30T20:50:23.412Z,13.70
2022-10-30T20:52:53.457Z,13.70
2022-10-30T20:55:22.519Z,13.70
2022-10-30T20:57:49.100Z,13.70
2022-10-30T21:00:15.624Z,13.60
2022-10-30T21:02:42.346Z,13.60
2022-10-30T21:05:30.213Z,13.60
2022-10-30T21:08:00.984Z,13.60
2022-10-30T21:10:30.592Z,13.60
2022-10-30T21:12:58.993Z,13.60
2022-10-30T21:15:33.584Z,13.50
2022-10-30T21:18:00.445Z,13.50
2022-10-30T21:20:27.160Z,13.50
2022-10-30T21:22:53.698Z,13.50
2022-10-30T21:25:20.214Z,13.40
2022-10-30T21:27:46.771Z,13.30
2022-10-30T21:30:13.492Z,13.20
2022-10-30T21:32:40.001Z,13.10
2022-10-30T21:35:06.678Z,13.10
2022-10-30T21:37:38.540Z,13.00
2022-10-30T21:40:07.790Z,13.00
2022-10-30T21:42:34.409Z,13.00
2022-10-30T21:45:00.962Z,13.00
2022-10-30T21:47:27.484Z,12.90
2022-10-30T21:49:56.413Z,13.00
2022-10-30T21:52:25.201Z,12.90
2022-10-30T21:54:51.724Z,13.00
2022-10-30T21:57:18.250Z,13.00
2022-10-30T21:59:44.779Z,12.90
2022-10-30T22:02:14.639Z,12.90
2022-10-30T22:04:41.226Z,12.90
2022-10-30T22:07:07.847Z,12.90
2022-10-30T22:09:37.680Z,12.80
2022-10-30T22:12:04.294Z,12.80
2022-10-30T22:14:30.947Z,12.80
2022-10-30T22:16:59.908Z,12.80
2022-10-30T22:19:26.435Z,12.70
2022-10-30T22:21:52.971Z,12.70
2022-10-30T22:24:19.583Z,12.70
2022-10-30T22:26:46.113Z,12.70
2022-10-30T22:29:12.739Z,12.60
2022-10-30T22:31:41.437Z,12.70
2022-10-30T22:34:08.003Z,12.60
2022-10-30T22:36:34.612Z,12.60
2022-10-30T22:39:02.228Z,12.60
2022-10-30T22:41:32.858Z,12.50
2022-10-30T22:44:04.985Z,12.60
2022-10-30T22:46:31.563Z,12.60
2022-10-30T22:49:00.458Z,12.60
2022-10-30T22:51:27.221Z,12.60
2022-10-30T22:54:01.410Z,12.60
2022-10-30T22:56:29.209Z,12.60
2022-10-30T22:58:55.861Z,12.50
2022-10-30T23:01:27.158Z,12.50
2022-10-30T23:03:57.442Z,12.60
2022-10-30T23:06:23.971Z,12.50
2022-10-30T23:08:54.559Z,12.50
2022-10-30T23:11:21.248Z,12.50
2022-10-30T23:13:52.767Z,12.50
2022-10-30T23:16:20.780Z,12.50
2022-10-30T23:18:47.650Z,12.50
2022-10-30T23:21:15.853Z,12.40
2022-10-30T23:23:43.064Z,12.40
2022-10-30T23:26:11.312Z,12.30
2022-10-30T23:28:42.491Z,12.30
2022-10-30T23:31:29.312Z,12.20
2022-10-30T23:33:57.098Z,12.20
2022-10-30T23:36:24.044Z,12.20
2022-10-30T23:38:54.435Z,12.20
2022-10-30T23:41:21.708Z,12.20
2022-10-30T23:43:48.546Z,12.20
2022-10-30T23:46:17.719Z,12.20
2022-10-30T23:48:44.276Z,12.20
2022-10-30T23:51:10.876Z,12.20
2022-10-30T23:53:37.431Z,12.20
2022-10-30T23:56:06.364Z,12.20
2022-10-30T23:58:32.916Z,12.20
